createdAt,value
2022-10-19T00:02:30.635Z,92.80
2022-10-19T00:07:33.010Z,93.02
2022-10-19T00:12:34.173Z,93.18
2022-10-19T00:17:35.964Z,93.50
2022-10-19T00:22:38.160Z,93.71
2022-10-19T00:27:38.966Z,93.11
2022-10-19T00:32:39.784Z,93.38
2022-10-19T00:37:42.028Z,93.06
2022-10-19T00:42:42.833Z,92.70
2022-10-19T00:47:46.015Z,92.17
2022-10-19T00:52:48.356Z,91.80
2022-10-19T00:57:49.150Z,92.17
2022-10-19T01:02:49.946Z,91.25
2022-10-19T01:07:52.119Z,91.86
2022-10-19T01:13:09.014Z,91.80
2022-10-19T01:18:19.207Z,91.40
2022-10-19T01:23:57.153Z,91.47
2022-10-19T01:29:12.078Z,92.21
2022-10-19T01:34:20.494Z,92.09
2022-10-19T01:39:36.933Z,91.69
2022-10-19T01:44:46.093Z,91.50
2022-10-19T01:49:51.285Z,92.55
2022-10-19T01:54:57.517Z,92.27
2022-10-19T01:59:58.879Z,92.55
2022-10-19T02:05:02.550Z,92.04
2022-10-19T02:10:03.359Z,91.72
2022-10-19T02:15:10.405Z,91.28
2022-10-19T02:20:13.438Z,92.04
2022-10-19T02:25:14.529Z,91.85
2022-10-19T02:30:18.415Z,91.93
2022-10-19T02:35:20.913Z,91.67
2022-10-19T02:40:22.146Z,92.21
2022-10-19T02:45:26.987Z,91.31
2022-10-19T02:50:29.518Z,90.24
2022-10-19T02:55:31.738Z,90.45
2022-10-19T03:00:32.609Z,89.96
2022-10-19T03:05:34.735Z,88.80
2022-10-19T03:10:35.500Z,89.06
2022-10-19T03:15:36.283Z,89.18
2022-10-19T03:20:38.410Z,89.78
2022-10-19T03:25:39.202Z,89.81
2022-10-19T03:30:40.066Z,88.63
2022-10-19T03:35:42.298Z,88.60
2022-10-19T03:40:43.210Z,88.87
2022-10-19T03:45:47.283Z,88.10
2022-10-19T03:50:49.428Z,88.81
2022-10-19T03:55:50.209Z,88.66
2022-10-19T04:00:51.027Z,88.83
2022-10-19T04:05:53.514Z,87.83
2022-10-19T04:10:54.317Z,87.30
2022-10-19T04:15:55.152Z,87.56
2022-10-19T04:21:01.691Z,88.27
2022-10-19T04:26:02.881Z,87.95
2022-10-19T04:31:04.694Z,87.42
2022-10-19T04:36:09.454Z,87.30
2022-10-19T04:41:11.775Z,87.19
2022-10-19T04:46:14.981Z,87.05
2022-10-19T04:51:18.096Z,86.57
2022-10-19T04:56:21.040Z,87.28
2022-10-19T05:01:23.209Z,86.69
2022-10-19T05:06:26.018Z,87.34
2022-10-19T05:11:27.293Z,87.49
2022-10-19T05:16:28.215Z,87.81
2022-10-19T05:21:30.523Z,87.95
2022-10-19T05:26:31.312Z,87.80
2022-10-19T05:31:33.918Z,87.93
2022-10-19T05:36:37.815Z,87.34
2022-10-19T05:41:38.781Z,86.60
2022-10-19T05:46:39.596Z,87.85
2022-10-19T05:51:42.186Z,87.46
2022-10-19T05:56:43.537Z,87.12
2022-10-19T06:01:44.540Z,87.21
2022-10-19T06:06:46.739Z,87.28
2022-10-19T06:11:48.873Z,86.84
2022-10-19T06:16:49.657Z,86.66
2022-10-19T06:21:51.820Z,86.46
2022-10-19T06:26:52.580Z,85.26
2022-10-19T06:31:54.504Z,85.11
2022-10-19T06:36:56.698Z,84.71
2022-10-19T06:41:57.533Z,84.43
2022-10-19T06:46:59.143Z,82.10
2022-10-19T06:52:01.369Z,81.09
2022-10-19T06:57:02.163Z,80.52
2022-10-19T07:02:02.949Z,80.42
2022-10-19T07:07:05.676Z,78.92
2022-10-19T07:12:06.743Z,78.35
2022-10-19T07:17:07.937Z,78.63
2022-10-19T07:22:10.326Z,78.59
2022-10-19T07:27:11.327Z,77.39
2022-10-19T07:32:12.679Z,77.20
2022-10-19T07:37:14.820Z,76.44
2022-10-19T07:42:15.653Z,76.44
2022-10-19T07:47:16.492Z,77.32
2022-10-19T07:52:18.677Z,75.81
2022-10-19T07:57:19.578Z,75.81
2022-10-19T08:02:20.564Z,75.95
2022-10-19T08:07:22.717Z,75.43
2022-10-19T08:12:23.499Z,76.28
2022-10-19T08:17:24.292Z,76.64
2022-10-19T08:22:26.609Z,77.43
2022-10-19T08:27:27.527Z,75.75
2022-10-19T08:32:28.358Z,75.47
2022-10-19T08:37:44.370Z,75.55
2022-10-19T08:42:54.603Z,76.77
2022-10-19T08:48:01.643Z,76.86
2022-10-19T08:53:06.441Z,75.71
2022-10-19T08:58:21.573Z,77.02
2022-10-19T09:03:50.705Z,76.05
2022-10-19T09:08:51.561Z,74.58
2022-10-19T09:14:06.551Z,74.13
2022-10-19T09:19:16.745Z,72.55
2022-10-19T09:24:29.152Z,71.19
2022-10-19T09:29:38.468Z,70.60
2022-10-19T09:34:44.561Z,70.41
2022-10-19T09:39:52.391Z,71.50
2022-10-19T09:44:56.486Z,71.13
2022-10-19T09:50:08.599Z,69.98
2022-10-19T09:55:23.990Z,71.01
2022-10-19T10:00:32.190Z,71.63
2022-10-19T10:05:35.816Z,69.35
2022-10-19T10:10:40.535Z,68.61
2022-10-19T10:15:45.160Z,63.30
2022-10-19T10:21:04.862Z,65.53
2022-10-19T10:26:18.194Z,64.78
2022-10-19T10:31:24.727Z,64.65
2022-10-19T10:36:27.840Z,65.94
2022-10-19T10:41:32.626Z,65.77
2022-10-19T10:46:36.283Z,63.52
2022-10-19T10:51:40.654Z,65.30
2022-10-19T10:56:44.666Z,63.82
2022-10-19T11:01:56.981Z,61.65
2022-10-19T11:07:02.429Z,59.62
2022-10-19T11:12:10.134Z,58.75
2022-10-19T11:17:18.013Z,60.39
2022-10-19T11:22:27.401Z,61.59
2022-10-19T11:27:42.115Z,61.22
2022-10-19T11:33:02.628Z,60.05
2022-10-19T11:38:21.362Z,58.57
2022-10-19T11:43:35.824Z,57.12
2022-10-19T11:48:52.939Z,57.35
2022-10-19T11:54:10.028Z,57.00
2022-10-19T11:59:24.872Z,57.29
2022-10-19T12:04:43.104Z,56.85
2022-10-19T12:09:53.846Z,55.67
2022-10-19T12:15:13.992Z,54.70
2022-10-19T12:20:23.155Z,54.51
2022-10-19T12:25:24.579Z,54.27
2022-10-19T12:30:26.895Z,53.45
2022-10-19T12:35:52.465Z,53.12
2022-10-19T12:41:01.759Z,53.07
2022-10-19T12:46:14.776Z,52.59
2022-10-19T12:51:18.216Z,52.43
2022-10-19T12:56:23.811Z,52.22
2022-10-19T13:01:29.751Z,53.21
2022-10-19T13:06:36.144Z,53.87
2022-10-19T13:11:57.984Z,53.48
2022-10-19T13:17:01.932Z,54.27
2022-10-19T13:22:28.095Z,55.24
2022-10-19T13:27:38.425Z,54.45
2022-10-19T13:32:46.441Z,55.25
2022-10-19T13:37:47.327Z,55.58
2022-10-19T13:42:58.535Z,55.28
2022-10-19T13:48:15.899Z,56.59
2022-10-19T13:53:42.029Z,56.10
2022-10-19T13:59:09.710Z,56.50
2022-10-19T14:04:22.298Z,55.24
2022-10-19T14:09:39.401Z,57.36
2022-10-19T14:19:52.322Z,57.86
2022-10-19T14:24:53.275Z,55.56
2022-10-19T14:29:55.443Z,55.89
2022-10-19T14:35:02.064Z,57.33
2022-10-19T14:40:08.325Z,56.98
2022-10-19T14:45:16.058Z,57.00
2022-10-19T14:50:19.070Z,57.88
2022-10-19T14:55:22.074Z,57.19
2022-10-19T15:05:36.571Z,58.87
2022-10-19T15:10:43.764Z,58.97
2022-10-19T15:15:44.570Z,58.54
2022-10-19T15:20:54.998Z,58.20
2022-10-19T15:26:17.665Z,58.75
2022-10-19T15:31:21.567Z,60.46
2022-10-19T15:36:25.161Z,60.13
2022-10-19T15:41:29.080Z,60.05
2022-10-19T15:46:32.603Z,60.39
2022-10-19T15:51:37.572Z,60.68
2022-10-19T15:56:40.507Z,61.69
2022-10-19T16:01:42.020Z,61.37
2022-10-19T16:06:46.181Z,61.77
2022-10-19T16:11:47.639Z,61.44
2022-10-19T16:16:51.136Z,61.48
2022-10-19T16:21:53.650Z,61.50
2022-10-19T16:26:54.415Z,63.41
2022-10-19T16:31:55.193Z,62.19
2022-10-19T16:36:57.333Z,64.22
2022-10-19T16:41:58.177Z,65.71
2022-10-19T16:46:59.810Z,63.49
2022-10-19T16:52:02.008Z,64.34
2022-10-19T16:57:07.121Z,63.27
2022-10-19T17:02:11.030Z,63.50
2022-10-19T17:07:13.282Z,63.56
2022-10-19T17:12:14.143Z,64.38
2022-10-19T17:17:17.150Z,65.31
2022-10-19T17:22:19.347Z,67.89
2022-10-19T17:27:20.181Z,69.00
2022-10-19T17:32:20.966Z,70.60
2022-10-19T17:37:23.552Z,72.04
2022-10-19T17:42:24.396Z,73.50
2022-10-19T17:47:25.152Z,73.95
2022-10-19T17:52:27.292Z,75.48
2022-10-19T17:57:28.152Z,75.49
2022-10-19T18:02:29.041Z,76.32
2022-10-19T18:07:32.206Z,76.72
2022-10-19T18:12:33.173Z,77.77
2022-10-19T18:17:34.184Z,78.50
2022-10-19T18:22:36.627Z,79.37
2022-10-19T18:27:37.806Z,79.43
2022-10-19T18:32:38.808Z,80.42
2022-10-19T18:37:40.931Z,80.45
2022-10-19T18:42:41.709Z,81.00
2022-10-19T18:47:42.501Z,81.93
2022-10-19T18:52:44.737Z,82.27
2022-10-19T18:57:45.550Z,83.12
2022-10-19T19:02:54.251Z,84.42
2022-10-19T19:07:56.651Z,83.51
2022-10-19T19:12:57.486Z,83.84
2022-10-19T19:17:58.513Z,84.06
2022-10-19T19:23:00.685Z,85.17
2022-10-19T19:28:01.591Z,84.64
2022-10-19T19:33:02.399Z,85.10
2022-10-19T19:38:04.651Z,85.40
2022-10-19T19:43:05.427Z,84.89
2022-10-19T19:48:08.210Z,85.90
2022-10-19T19:53:10.516Z,86.04
2022-10-19T19:58:11.272Z,85.61
2022-10-19T20:03:13.246Z,85.94
2022-10-19T20:08:15.424Z,86.05
2022-10-19T20:13:16.317Z,85.92
2022-10-19T20:18:17.328Z,87.03
2022-10-19T20:23:22.642Z,87.05
2022-10-19T20:28:23.645Z,87.31
2022-10-19T20:33:24.428Z,87.06
2022-10-19T20:38:27.649Z,87.43
2022-10-19T20:43:28.500Z,86.85
2022-10-19T20:48:29.291Z,87.07
2022-10-19T20:53:31.469Z,87.49
2022-10-19T20:58:32.464Z,87.29
2022-10-19T21:03:33.313Z,87.48
2022-10-19T21:08:36.258Z,87.27
2022-10-19T21:13:37.066Z,87.98
2022-10-19T21:18:37.952Z,88.16
2022-10-19T21:23:40.219Z,88.67
2022-10-19T21:28:41.765Z,88.38
2022-10-19T21:33:43.006Z,88.39
2022-10-19T21:38:45.183Z,87.71
2022-10-19T21:43:46.034Z,88.50
2022-10-19T21:48:47.422Z,87.66
2022-10-19T21:53:49.657Z,87.36
2022-10-19T21:58:52.423Z,87.61
2022-10-19T22:03:57.232Z,87.72
2022-10-19T22:08:59.989Z,88.13
2022-10-19T22:14:02.436Z,88.47
2022-10-19T22:19:04.974Z,87.97
2022-10-19T22:24:10.033Z,88.94
2022-10-19T22:29:11.461Z,88.26
2022-10-19T22:34:14.627Z,88.32
2022-10-19T22:39:16.951Z,89.28
2022-10-19T22:44:17.701Z,89.26
2022-10-19T22:49:18.418Z,89.04
2022-10-19T22:54:20.512Z,87.91
2022-10-19T22:59:21.270Z,89.21
2022-10-19T23:04:22.151Z,89.06
2022-10-19T23:09:24.474Z,88.42
2022-10-19T23:14:25.274Z,88.18
2022-10-19T23:19:26.043Z,88.47
2022-10-19T23:24:28.153Z,88.28
2022-10-19T23:29:28.934Z,88.16
2022-10-19T23:34:29.714Z,88.56
2022-10-19T23:39:31.837Z,88.03
2022-10-19T23:44:32.640Z,88.13
2022-10-19T23:49:33.380Z,88.10
2022-10-19T23:54:35.565Z,89.10
2022-10-19T23:59:36.373Z,89.54
